Home > Products > Valid Products > TAF

000
FTUS41 KBUF 311100
TAFJHW
TAF
KJHW 311126Z 3112/0112 25005KT P6SM BKN025
     FM311500 26008KT P6SM BKN080
     FM010200 26008KT 5SM -SHSN OVC025
     FM010800 31006KT 3SM -SHSN OVC008
      AMD LTD TO CLD VIS AND WIND=



000
FTUS41 KBUF 311100
TAFART
TAF
KART 311126Z 3112/0112 VRB05KT P6SM SKC
     FM312100 24005KT P6SM BKN100
     FM010200 24008KT 3SM -SHSN OVC025
     FM010800 35008KT P6SM BKN035=



000
FTUS41 KBUF 311100
TAFBUF
TAF
KBUF 311126Z 3112/0112 VRB05KT 5SM -SHSN OVC025
     FM311400 23008KT P6SM BKN080
     FM311700 24012KT P6SM BKN080
     FM010200 26010KT 5SM -SHSN BKN025
     FM010800 31008KT P6SM -SHSN OVC015=



000
FTUS41 KBUF 311100
TAFROC
TAF
KROC 311126Z 3112/0112 VRB05KT 6SM -SHSN OVC025
     FM311700 26008KT P6SM BKN080
     FM010500 26010KT 6SM -SHSN OVC025
     FM010700 27006KT 3SM -SHSN OVC012
     FM011000 35008KT P6SM -SHSN OVC015=



000
FTUS41 KBUF 311100
TAFIAG
TAF
KIAG 311126Z 3112/0112 VRB05KT 6SM -SHSN OVC030
     FM311400 23006KT P6SM BKN080
     FM311700 24010KT P6SM BKN080
     FM010400 26010KT 5SM -SHSN BKN025
     FM010800 31008KT P6SM -SHSN OVC015=



000
FTUS41 KBUF 310800 AAA
TAFART
TAF AMD
KART 310826Z 3108/0106 VRB05KT P6SM SKC
     FM312100 24005KT P6SM BKN100
     FM010200 24008KT 6SM -SHSN BKN025=



000
FTUS41 KBUF 310800 AAA
TAFROC
TAF AMD
KROC 310826Z 3108/0106 25006KT P6SM SCT025
     FM311100 27005KT 6SM -SHSN BKN025
     FM311600 26008KT P6SM BKN080
     FM010500 26010KT P6SM -SHSN BKN025=



000
FTUS41 KBUF 310800 AAA
TAFJHW
TAF AMD
KJHW 310826Z 3108/0106 30005KT P6SM BKN018
     FM311000 28005KT P6SM BKN080
     FM311600 26008KT P6SM BKN080
     FM010200 26008KT 5SM -SHSN OVC025
      AMD LTD TO CLD VIS AND WIND=



000
FTUS41 KBUF 310800 AAA
TAFIAG
TAF AMD
KIAG 310826Z 3108/0106 22005KT P6SM SCT035
     FM311000 22005KT P6SM -SHSN BKN035
     FM311300 23006KT P6SM BKN080
     FM311700 24010KT P6SM BKN080
     FM010400 26010KT 6SM -SHSN BKN025=



000
FTUS41 KBUF 310800 AAA
TAFBUF
TAF AMD
KBUF 310826Z 3108/0106 22006KT 6SM -SHSN BKN025
     FM311300 23008KT P6SM BKN080
     FM311700 24012KT P6SM BKN080
     FM010200 26010KT 6SM -SHSN BKN025=



000
FTUS41 KBUF 310500
TAFBUF
TAF
KBUF 310520Z 3106/0106 25008KT P6SM -SN OVC025
     FM310900 VRB03KT P6SM BKN025
     FM311000 VRB03KT P6SM BKN035
     FM311200 VRB03KT P6SM BKN080
     FM311400 23004KT P6SM BKN090
     FM311700 24010KT P6SM BKN080
     FM010000 24012KT P6SM BKN020
     FM010200 25011KT P6SM VCSH BKN045
     FM010500 26010KT P6SM BKN030=



000
FTUS41 KBUF 310500
TAFROC
TAF
KROC 310520Z 3106/0106 31011KT P6SM BKN030
     FM310800 30008KT P6SM VCSH BKN025
     FM310900 30007KT P6SM VCSH BKN020
     FM311400 28004KT P6SM BKN200
     FM311800 27008KT P6SM BKN140
     FM312000 26009KT P6SM BKN060
     FM010100 24008KT P6SM BKN140
     FM010400 26010KT P6SM BKN040=



000
FTUS41 KBUF 310500
TAFART
TAF
KART 310520Z 3106/0106 31003KT P6SM SKC
     FM310700 VRB03KT P6SM SKC
     FM311600 28004KT P6SM FEW250
     FM312000 24006KT P6SM SCT250
     FM312200 22005KT P6SM BKN070
     FM010000 19004KT P6SM BKN020
     FM010300 23008KT 6SM -SN BKN020
     FM010500 27010KT 6SM -SN BKN025=



000
FTUS41 KBUF 310500
TAFJHW
TAF
KJHW 310520Z 3106/0106 34006KT P6SM OVC016
     FM310800 29005KT P6SM BKN020
     FM311000 29005KT P6SM BKN080
     FM311100 27004KT P6SM BKN040
     FM311200 VRB03KT P6SM BKN020
     FM311400 VRB03KT P6SM BKN040
     FM311700 25008KT P6SM BKN060
     FM312200 25010KT P6SM BKN140
     FM010200 25009KT 5SM -SN BKN110
     FM010400 26010KT 3SM -SN OVC035
      AMD LTD TO CLD VIS AND WIND=



000
FTUS41 KBUF 310500
TAFIAG
TAF
KIAG 310520Z 3106/0106 31007KT P6SM BKN025
     FM310900 VRB03KT P6SM BKN025
     FM311000 VRB03KT P6SM BKN030
     FM311300 VRB03KT P6SM BKN040
     FM311400 22004KT P6SM BKN060
     FM311700 23010KT P6SM BKN070
     FM010300 25011KT P6SM BKN040=



000
FTUS41 KBUF 302300 AAA
TAFIAG
TAF AMD
KIAG 302342Z 3100/3124 31009KT P6SM SCT024 OVC030
     FM310300 30008KT P6SM FEW250
     FM311000 VRB03KT P6SM BKN100
     FM311400 22004KT P6SM BKN080
     FM311800 23011KT P6SM OVC050
     FM312200 23012KT P6SM BKN200=



000
FTUS41 KBUF 302300 AAA
TAFBUF
TAF AMD
KBUF 302340Z 3100/3124 30007KT P6SM -SN SCT025 BKN030
     FM310300 29007KT P6SM SCT250
     FM310900 VRB03KT P6SM BKN110
     FM311400 23004KT P6SM BKN080
     FM311800 24011KT P6SM OVC060
     FM312200 24013KT P6SM BKN200
     FM312300 24013KT P6SM BKN060=



000
FTUS41 KBUF 302300
TAFJHW
TAF
KJHW 302322Z 3100/3124 31011KT 4SM -SN FEW011 BKN016 OVC023
     FM310500 30005KT P6SM BKN150
     FM310600 29004KT P6SM BKN110
     FM311200 VRB03KT P6SM BKN070
     FM311500 25004KT P6SM BKN060
     FM311700 25008KT P6SM BKN060
     FM312200 25010KT P6SM BKN140
      AMD LTD TO CLD VIS AND WIND=



000
FTUS41 KBUF 302300
TAFART
TAF
KART 302322Z 3100/3124 36003KT P6SM SKC
     FM310700 VRB03KT P6SM SKC
     FM311600 28004KT P6SM FEW250
     FM312000 24006KT P6SM SCT250
     FM312200 22005KT P6SM BKN070=



000
FTUS41 KBUF 302300
TAFIAG
TAF
KIAG 302322Z 3100/3124 32013G20KT P6SM -SN BKN030
     FM310300 30008KT P6SM FEW250
     FM311000 VRB03KT P6SM BKN100
     FM311400 22004KT P6SM BKN080
     FM311800 23011KT P6SM OVC050
     FM312200 23012KT P6SM BKN200=



000
FTUS41 KBUF 302300
TAFBUF
TAF
KBUF 302322Z 3100/3124 31012G18KT P6SM BKN025 OVC030
     FM310300 29007KT P6SM SCT250
     FM310900 VRB03KT P6SM BKN110
     FM311400 23004KT P6SM BKN080
     FM311800 24011KT P6SM OVC060
     FM312200 24013KT P6SM BKN200
     FM312300 24013KT P6SM BKN060=



000
FTUS41 KBUF 302300
TAFROC
TAF
KROC 302322Z 3100/3124 30011KT P6SM -SN VCSH OVC025
     FM310300 31011G17KT P6SM BKN020
     FM310700 30008KT P6SM BKN200
     FM310800 30008KT P6SM VCSH BKN250
     FM311200 29004KT P6SM VCSH BKN120
     FM311300 28004KT P6SM BKN200
     FM311700 27007KT P6SM BKN090=



000
FTUS41 KBUF 302000 AAA
TAFROC
TAF AMD
KROC 302031Z 3021/3118 31016KT 2SM -SHSN OVC025
     FM310000 30012G18KT 5SM BR VCSH BKN015
     FM310500 31010G16KT P6SM BKN020
     FM310800 30008KT P6SM VCSH BKN015
     FM311200 29004KT P6SM VCSH BKN015
     FM311600 27005KT P6SM BKN070=



000
FTUS41 KBUF 302000 AAA
TAFIAG
TAF AMD
KIAG 302031Z 3021/3118 31016KT 6SM BR VCSH OVC025
     FM310000 30011KT P6SM FEW200
     FM310900 VRB03KT P6SM SCT130
     FM311300 22004KT P6SM BKN025
     FM311700 23010KT P6SM BKN025=



000
FTUS41 KBUF 302000 AAA
TAFBUF
TAF AMD
KBUF 302031Z 3021/3118 31015KT 4SM -SHSN OVC025
     FM302200 30013KT 6SM BR VCSH BKN035
     FM310000 29009KT P6SM SCT150
     FM310900 VRB03KT P6SM BKN200
     FM311200 VRB03KT P6SM BKN025
     FM311700 24010KT P6SM BKN020=



000
FTUS41 KBUF 302000 AAA
TAFART
TAF AMD
KART 302031Z 3021/3118 35012KT P6SM VCSH OVC035
     FM302200 32011KT P6SM OVC020
     FM310000 32007KT P6SM OVC250
     FM310700 VRB03KT P6SM SKC
     FM311600 28004KT P6SM FEW250=



000
FTUS41 KBUF 302000 AAA
TAFJHW
TAF AMD
KJHW 302031Z 3021/3118 31014G20KT 2SM -SHSN BLSN OVC012
     FM302200 31014KT P6SM VCSH OVC012
     FM310000 30009KT P6SM BKN040
     FM310900 29005KT P6SM BKN012
     FM311500 25004KT P6SM BKN012
      AMD LTD TO CLD VIS AND WIND=



000
FTUS41 KBUF 301700 CCA
TAFBUF
TAF COR
KBUF 301759Z 3018/3118 31015KT 4SM -SHSN OVC025
      TEMPO 3018/3020 2SM -SHSN BKN015
     FM302200 30013KT 4SM BR VCSH BKN035
     FM310100 29009KT P6SM SCT150
     FM310900 VRB03KT P6SM BKN200
     FM311200 VRB03KT P6SM BKN025
     FM311700 24010KT P6SM BKN020=



000
FTUS41 KBUF 301700
TAFROC
TAF
KROC 301727Z 3018/3118 31016KT 1SM -SHSN OVC015
     FM310200 30012G18KT 5SM BR VCSH BKN015
     FM310500 31010G16KT P6SM BKN020
     FM310800 30008KT P6SM VCSH BKN015
     FM311200 29004KT P6SM VCSH BKN015
     FM311600 27005KT P6SM BKN070=



000
FTUS41 KBUF 301700
TAFBUF
TAF
KBUF 301727Z 3018/3118 31015KT 2SM -SHSN OVC015
     FM302200 30013KT 4SM BR VCSH BKN035
     FM310100 29009KT P6SM SCT150
     FM310900 VRB03KT P6SM BKN200
     FM311200 VRB03KT P6SM BKN025
     FM311700 24010KT P6SM BKN020=



000
FTUS41 KBUF 301700
TAFIAG
TAF
KIAG 301727Z 3018/3118 31016KT 6SM -SHSN OVC015
      TEMPO 3018/3022 2SM -SHSN
     FM302200 31016KT 5SM BR VCSH BKN040
     FM310100 30011KT P6SM FEW200
     FM310900 VRB03KT P6SM SCT130
     FM311300 22004KT P6SM BKN025
     FM311700 23010KT P6SM BKN025=



000
FTUS41 KBUF 301700
TAFART
TAF
KART 301727Z 3018/3118 35012KT P6SM VCSH OVC025
     FM302200 32011KT P6SM OVC020
     FM310000 32007KT P6SM OVC250
     FM310700 VRB03KT P6SM SKC
     FM311600 28004KT P6SM FEW250=



000
FTUS41 KBUF 301700
TAFJHW
TAF
KJHW 301727Z 3018/3118 31014G20KT 2SM -SHSN BLSN OVC012
     FM302100 31014KT P6SM VCSH OVC012
     FM310000 30009KT P6SM BKN040
     FM310900 29005KT P6SM BKN012
     FM311500 25004KT P6SM BKN012
      AMD LTD TO CLD VIS AND WIND=



000
FTUS41 KBUF 301500 AAB
TAFBUF
TAF AMD
KBUF 301508Z 3015/3112 34012G20KT 2SM -SHSN BKN025 OVC080
     FM301800 32012KT 5SM -SHSN VCSH BKN025
     FM302300 30012KT P6SM SCT025
     FM310700 25006KT P6SM SCT120
     FM311100 21005KT P6SM BKN100=



000
FTUS41 KBUF 301500 AAB
TAFIAG
TAF AMD
KIAG 301508Z 3015/3112 33014G24KT 2SM -SHSN BKN015
     FM301800 32012KT 5SM -SHSN VCSH BKN025
     FM302300 30013KT P6SM SCT025
     FM310500 29008KT P6SM SCT200
     FM311000 25005KT P6SM BKN100=



000
FTUS41 KBUF 301500 AAA
TAFJHW
TAF AMD
KJHW 301508Z 3015/3112 35015G22KT 1/2SM SHSN OVC007
     FM301800 30015KT 4SM -SHSN OVC012
     FM302100 30014KT P6SM BKN200
     FM310500 30011KT P6SM BKN007
      AMD LTD TO CLD VIS AND WIND=



000
FTUS41 KBUF 301500 AAB
TAFROC
TAF AMD
KROC 301508Z 3015/3112 32014G22KT 3SM -SHSN BKN015
     FM301900 31012G20KT 6SM -SHSN OVC020
     FM310200 31016KT P6SM BKN015=



000
FTUS41 KBUF 301500 AAB
TAFART
TAF AMD
KART 301508Z 3015/3112 35014G20KT P6SM VCSH BKN040
     FM301800 32010KT P6SM VCSH OVC025
     FM302300 31008KT P6SM OVC045
     FM311000 27004KT P6SM FEW250=



000
FTUS41 KBUF 301200 AAA
TAFROC
TAF AMD
KROC 301208Z 3012/3112 32012KT 6SM -SHSN OVC020
      TEMPO 3012/3015 33015G25KT 2SM -SHSN
     FM310200 31016KT P6SM BKN015=



000
FTUS41 KBUF 301200 AAA
TAFART
TAF AMD
KART 301208Z 3012/3112 33013G20KT P6SM -SHSN OVC020
      TEMPO 3012/3015 33015G25KT 2SM -SHSN
     FM301800 32010KT P6SM VCSH OVC025
     FM302300 31008KT P6SM OVC045
     FM311000 27004KT P6SM FEW250=



000
FTUS41 KBUF 301200 AAA
TAFBUF
TAF AMD
KBUF 301207Z 3012/3112 32012KT P6SM VCSH BKN025 OVC080
      TEMPO 3012/3015 33015G25KT 2SM -SHSN
     FM302300 30012KT P6SM SCT025
     FM310700 25006KT P6SM SCT120
     FM311100 21005KT P6SM BKN100=



000
FTUS41 KBUF 301200 AAA
TAFIAG
TAF AMD
KIAG 301206Z 3012/3112 32012KT P6SM VCSH BKN025 OVC080
      TEMPO 3012/3015 33015G25KT 2SM -SHSN
     FM302300 30013KT P6SM SCT025
     FM310500 29008KT P6SM SCT200
     FM311000 25005KT P6SM BKN100=



000
FTUS41 KBUF 301100
TAFIAG
TAF
KIAG 301133Z 3012/3112 32012KT P6SM VCSH BKN025 OVC080
     FM302300 30013KT P6SM SCT025
     FM310500 29008KT P6SM SCT200
     FM311000 25005KT P6SM BKN100=



000
FTUS41 KBUF 301100
TAFART
TAF
KART 301133Z 3012/3112 33013G20KT P6SM -SHSN OVC020
     FM301800 32010KT P6SM VCSH OVC025
     FM302300 31008KT P6SM OVC045
     FM311000 27004KT P6SM FEW250=



000
FTUS41 KBUF 301100
TAFJHW
TAF
KJHW 301133Z 3012/3112 29012G20KT 4SM -SHSN OVC007
      TEMPO 3012/3014 2SM -SHSN
     FM301800 30015KT P6SM OVC012
     FM302300 30014KT P6SM BKN200
     FM310500 30011KT P6SM BKN007
      AMD LTD TO CLD VIS AND WIND=



000
FTUS41 KBUF 301100
TAFBUF
TAF
KBUF 301133Z 3012/3112 32011KT P6SM VCSH BKN025 OVC080
     FM302300 30012KT P6SM SCT025
     FM310700 25006KT P6SM SCT120
     FM311100 21005KT P6SM BKN100=



000
FTUS41 KBUF 301100
TAFROC
TAF
KROC 301133Z 3012/3112 32012KT 6SM -SHSN OVC020
      TEMPO 3012/3014 4SM -SN
     FM310200 31016KT P6SM BKN015=



000
FTUS41 KBUF 300900 AAC
TAFROC
TAF AMD
KROC 300953Z 3010/3106 30010KT 3SM -SHSN OVC015
     FM301200 30014G22KT P6SM VCSH OVC025
     FM310400 30014KT P6SM BKN025=



000
FTUS41 KBUF 300900 AAB
TAFJHW
TAF AMD
KJHW 300953Z 3010/3106 29012G18KT 3SM -SN OVC006
     FM301500 31016KT 4SM -SHSN OVC007
     FM301800 30016G22KT 4SM -SHSN OVC015
     FM302200 30015G22KT P6SM VCSH SCT025 BKN080
     FM310100 30012KT P6SM BKN250
      AMD LTD TO CLD VIS AND WIND=



000
FTUS41 KBUF 300900 AAA
TAFART
TAF AMD
KART 300953Z 3010/3106 30014KT 6SM -SN SCT007 OVC015
     FM301200 32012KT 4SM -SHSN SCT007 OVC015
     FM301500 33013KT P6SM VCSH OVC015
     FM302100 31011G17KT P6SM VCSH BKN025
     FM310100 32010KT P6SM BKN060
     FM310400 32007KT P6SM SCT200=



000
FTUS41 KBUF 300900 AAC
TAFIAG
TAF AMD
KIAG 300953Z 3010/3106 33015KT P6SM VCSH SCT025 BKN035
     FM301400 32017G27KT 4SM -SHSN SCT007 OVC015
     FM301800 31015G25KT P6SM VCSH BKN025
     FM302200 30012G22KT P6SM SCT050 BKN150
     FM310100 30012KT P6SM BKN200=



000
FTUS41 KBUF 300900 AAC
TAFBUF
TAF AMD
KBUF 300953Z 3010/3106 31014KT P6SM VCSH SCT025 OVC040
     FM301400 31015G22KT P6SM VCSH SCT025 OVC040
     FM302200 30014G20KT P6SM SCT035 BKN070
     FM310100 29012KT P6SM BKN200=



000
FTUS41 KBUF 300700 AAA
TAFJHW
TAF AMD
KJHW 300716Z 3007/3106 29012G18KT 3SM -SN OVC006
     FM301000 30014G20KT 5SM -SHSN OVC003
     FM301500 31016KT 4SM -SHSN OVC007
     FM301800 30016G22KT 4SM -SHSN OVC015
     FM302200 30015G22KT P6SM VCSH SCT025 BKN080
     FM310100 30012KT P6SM BKN250
      AMD LTD TO CLD VIS AND WIND=



000
FTUS41 KBUF 300700 AAB
TAFROC
TAF AMD
KROC 300715Z 3007/3106 28010KT 6SM -SN SCT007 OVC015
     FM301200 31016G24KT 4SM -SHSN SCT007 OVC015
     FM302000 30014G22KT 6SM -SHSN OVC025
     FM310400 30014KT P6SM BKN025=



000
FTUS41 KBUF 300700 AAB
TAFBUF
TAF AMD
KBUF 300714Z 3007/3106 28012KT P6SM -SN SCT007 OVC015
     FM301000 31014G20KT P6SM VCSH SCT007 OVC015
     FM301400 31015G22KT 4SM -SHSN SCT007 OVC015
     FM301800 30015G21KT P6SM VCSH OVC025
     FM302200 30014G20KT P6SM SCT035 BKN070
     FM310100 29012KT P6SM BKN200=



000
FTUS41 KBUF 300700 AAB
TAFIAG
TAF AMD
KIAG 300714Z 3007/3106 29012KT P6SM -SN SCT007 OVC015
     FM301000 31015G25KT P6SM VCSH SCT007 OVC015
     FM301400 32017G27KT 4SM -SHSN SCT007 OVC015
     FM301800 31015G25KT P6SM VCSH BKN025
     FM302200 30012G22KT P6SM SCT050 BKN150
     FM310100 30012KT P6SM BKN200=



000
FTUS41 KBUF 300600 AAA
TAFROC
TAF AMD
KROC 300617Z 3006/3106 28010KT 6SM -FZDZSN SCT007 OVC015
     FM301200 31016G24KT 4SM -SHSN SCT007 OVC015
     FM302000 30014G22KT 6SM -SHSN OVC025
     FM310400 30014KT P6SM BKN025=



000
FTUS41 KBUF 300600 AAA
TAFIAG
TAF AMD
KIAG 300616Z 3006/3106 29012KT P6SM -FZDZSN SCT007 OVC015
      TEMPO 3006/3008 BKN007
     FM301000 31015G25KT P6SM VCSH SCT007 OVC015
     FM301400 32017G27KT 4SM -SHSN SCT007 OVC015
     FM301800 31015G25KT P6SM VCSH BKN025
     FM302200 30012G22KT P6SM SCT050 BKN150
     FM310100 30012KT P6SM BKN200=



000
FTUS41 KBUF 300600 AAA
TAFBUF
TAF AMD
KBUF 300616Z 3006/3106 28012KT P6SM -FZDZSN SCT007 OVC015
      TEMPO 3006/3008 BKN007
     FM301000 31014G20KT P6SM VCSH SCT007 OVC015
     FM301400 31015G22KT 4SM -SHSN SCT007 OVC015
     FM301800 30015G21KT P6SM VCSH OVC025
     FM302200 30014G20KT P6SM SCT035 BKN070
     FM310100 29012KT P6SM BKN200=



000
FTUS41 KBUF 300500
TAFART
TAF
KART 300520Z 3006/3106 19012G18KT 2SM -SN BKN007
     FM300800 23008KT 4SM -SN SCT007 OVC015
     FM301200 32012KT 4SM -SHSN SCT007 OVC015
     FM301500 33013KT P6SM VCSH OVC015
     FM302100 31011G17KT P6SM VCSH BKN025
     FM310100 32010KT P6SM BKN060
     FM310400 32007KT P6SM SCT200=



000
FTUS41 KBUF 300500
TAFBUF
TAF
KBUF 300520Z 3006/3106 28012KT P6SM VCSH SCT007 OVC015
      TEMPO 3006/3008 BKN007
     FM301000 31014G20KT P6SM VCSH SCT007 OVC015
     FM301400 31015G22KT 4SM -SHSN SCT007 OVC015
     FM301800 30015G21KT P6SM VCSH OVC025
     FM302200 30014G20KT P6SM SCT035 BKN070
     FM310100 29012KT P6SM BKN200=



000
FTUS41 KBUF 300500
TAFJHW
TAF
KJHW 300520Z 3006/3106 29012G18KT P6SM VCSH OVC007
     FM301000 30014G20KT 5SM -SHSN OVC003
     FM301500 31016KT 4SM -SHSN OVC007
     FM301800 30016G22KT 4SM -SHSN OVC015
     FM302200 30015G22KT P6SM VCSH SCT025 BKN080
     FM310100 30012KT P6SM BKN250
      AMD LTD TO CLD VIS AND WIND=



000
FTUS41 KBUF 300500
TAFROC
TAF
KROC 300520Z 3006/3106 28010KT 3SM -SN SCT007 OVC015
     FM300900 29014KT P6SM VCSH SCT007 OVC015
     FM301200 31016G24KT 4SM -SHSN SCT007 OVC015
     FM302000 30014G22KT 6SM -SHSN OVC025
     FM310400 30014KT P6SM BKN025=



000
FTUS41 KBUF 300500
TAFIAG
TAF
KIAG 300520Z 3006/3106 29012KT P6SM VCSH SCT007 OVC015
      TEMPO 3006/3008 BKN007
     FM301000 31015G25KT P6SM VCSH SCT007 OVC015
     FM301400 32017G27KT 4SM -SHSN SCT007 OVC015
     FM301800 31015G25KT P6SM VCSH BKN025
     FM302200 30012G22KT P6SM SCT050 BKN150
     FM310100 30012KT P6SM BKN200=



000
FTUS41 KBUF 300400 AAB
TAFROC
TAF AMD
KROC 300438Z 3005/3024 26010KT 2SM -SN SCT007 OVC015
      TEMPO 3005/3007 BKN007
     FM300700 29012KT 4SM -SHSN BR SCT007 OVC015
     FM301200 30015G25KT 4SM -SHSN SCT007 OVC015=



000
FTUS41 KBUF 300400 AAB
TAFIAG
TAF AMD
KIAG 300437Z 3005/3024 29012KT 4SM -SHSN BR SCT007 OVC015
     FM300900 31014G24KT 4SM -SHSN SCT007 OVC015
     FM301400 31018G26KT P6SM VCSH OVC015=



000
FTUS41 KBUF 300400 AAA
TAFBUF
TAF AMD
KBUF 300436Z 3005/3024 29012KT 4SM -SHSN SCT007 OVC015
      TEMPO 3005/3007 BKN007
     FM301200 31015G22KT 4SM -SHSN SCT007 OVC015
     FM301800 30015G21KT P6SM VCSH BKN015=



000
FTUS41 KBUF 300300 AAB
TAFART
TAF AMD
KART 300304Z 3003/3024 18012G22KT 4SM -SN OVC025
      TEMPO 3004/3006 2SM -SN BR BKN015
     FM300600 21012G18KT 2SM -SN BR SCT003 OVC007
     FM301100 29013G19KT 4SM -SHSN BR SCT007 OVC015
     FM301800 33012G18KT P6SM VCSH OVC015
     FM302200 32012G18KT P6SM BKN025=



000
FTUS41 KBUF 300300 AAA
TAFJHW
TAF AMD
KJHW 300302Z 3003/3024 29014G24KT 4SM -SN SCT003 OVC007
      TEMPO 3004/3008 2SM -SN BR
     FM301200 30015G22KT 4SM -SHSN BR SCT003 OVC007
     FM301600 31015G22KT 4SM -SHSN OVC015
     FM302100 30015KT P6SM -SHSN BKN015
      AMD LTD TO CLD VIS AND WIND=



000
FTUS41 KBUF 300300 AAA
TAFROC
TAF AMD
KROC 300301Z 3003/3024 25010KT 3SM -SN SCT007 OVC015
      TEMPO 3004/3006 2SM -SN BR
     FM300700 29012KT 4SM -SHSN BR SCT007 OVC015
     FM301200 30015G25KT 4SM -SHSN SCT007 OVC015=



000
FTUS41 KBUF 300300 AAA
TAFIAG
TAF AMD
KIAG 300300Z 3003/3024 30012KT 2SM -SN BR SCT004 OVC007
     FM300430 30012KT 4SM -SHSN BR SCT007 OVC015
     FM300900 31014G24KT 4SM -SHSN SCT007 OVC015
     FM301400 31018G26KT P6SM VCSH OVC015=



000
FTUS41 KBUF 300200 AAA
TAFBUF
TAF AMD
KBUF 300258Z 3003/3024 29012KT 2SM -SN BR SCT007 OVC015
     FM300430 30014KT 4SM -SHSN SCT007 OVC015
     FM301200 31015G22KT 4SM -SHSN SCT007 OVC015
     FM301800 30015G21KT P6SM VCSH BKN015=



000
FTUS41 KBUF 300200 AAA
TAFART
TAF AMD
KART 300207Z 3002/3024 18012G22KT 3SM -SN OVC025
      TEMPO 3002/3006 2SM -SN BR BKN015
     FM300600 21012KT 2SM -SN BR SCT003 OVC007
     FM301100 29013G19KT 4SM -SHSN BR SCT007 OVC015
     FM301800 33012G18KT P6SM VCSH OVC015
     FM302200 32012G18KT P6SM BKN025=



000
FTUS41 KBUF 292300
TAFROC
TAF
KROC 292340Z 3000/3024 19011KT 2SM -SN BR SCT007 OVC025
      TEMPO 3001/3004 1SM -SN SCT008 OVC015
     FM300400 24010KT 3SM -SN BR SCT007 OVC015
     FM300700 28012KT 4SM -SN BR SCT007 OVC015
     FM301200 30015G25KT 4SM -SHSN SCT007 OVC015=



000
FTUS41 KBUF 292300
TAFART
TAF
KART 292340Z 3000/3024 18012G22KT 1SM -SN BR OVC002
     FM300300 18014KT 2SM -SN BR SCT007 OVC015
     FM300600 20012KT 2SM -SN BR SCT003 OVC007
     FM301100 31013G19KT 4SM -SHSN BR SCT007 OVC015
     FM301800 33012G18KT P6SM VCSH OVC015
     FM302200 32012G18KT P6SM BKN025=



000
FTUS41 KBUF 292300
TAFBUF
TAF
KBUF 292340Z 3000/3024 21010KT 1SM -SN BR BKN007
     FM300200 25010KT 2SM -SN BR SCT007 OVC015
      TEMPO 3002/3004 BKN008
     FM300500 27012KT 4SM -SN BR SCT007 OVC015
     FM300900 30012KT 4SM -SHSN SCT007 OVC015
     FM301200 31015G22KT 4SM -SHSN SCT007 OVC015
     FM301800 30015G21KT P6SM VCSH BKN015=



000
FTUS41 KBUF 292300
TAFJHW
TAF
KJHW 292340Z 3000/3024 21010KT 2SM -SN BR OVC003
      TEMPO 3000/3004 1SM -SN
     FM300400 28012KT 4SM -SN BR SCT003 OVC007
     FM300800 30012KT 2SM -SN BR SCT003 OVC007
     FM301200 30015G22KT 2SM -SHSN BR SCT003 OVC007
     FM301600 31015G22KT 4SM -SHSN OVC015
     FM302100 30015KT P6SM -SHSN BKN015
      AMD LTD TO CLD VIS AND WIND=



000
FTUS41 KBUF 292300
TAFIAG
TAF
KIAG 292340Z 3000/3024 22010KT 1 1/2SM -SN BR OVC004
     FM300200 26010KT 2SM -SN BR SCT004 OVC007
     FM300500 29012KT 4SM -SN BR SCT007 OVC015
     FM301000 31014G24KT 4SM -SHSN SCT007 OVC015
     FM301300 31018G26KT P6SM VCSH OVC015=



000
FTUS41 KBUF 292300 AAB
TAFART
TAF AMD
KART 292319Z 2923/3018 17012G20KT 1SM -SN OVC007
     FM300300 22010KT 2SM -SN OVC012
     FM301100 29011KT 3SM -SHSN OVC012
     FM301500 33013KT 5SM -SHSN OVC012=



000
FTUS41 KBUF 292300 AAC
TAFIAG
TAF AMD
KIAG 292319Z 2923/3018 20011KT 1SM -SN BR OVC004
     FM300800 30015G22KT 2SM -SHSN OVC020
     FM301100 31017G25KT 4SM -SN VCSH BKN012 OVC025=



000
FTUS41 KBUF 292300 AAA
TAFBUF
TAF AMD
KBUF 292318Z 2923/3018 20014KT 2SM -SN OVC007
     FM300700 28012G18KT 2SM -SN OVC015
     FM301200 29012G18KT 4SM -SN BKN015=



000
FTUS41 KBUF 292200 AAC
TAFJHW
TAF AMD
KJHW 292217Z 2922/3018 20010KT 1SM -SN BR OVC004
     FM300200 25012KT 2SM -SN BR OVC007
     FM300800 29012G22KT 2SM -SN OVC007
      AMD LTD TO CLD VIS AND WIND=



000
FTUS41 KBUF 292200 AAC
TAFROC
TAF AMD
KROC 292216Z 2922/3018 18010KT 4SM -SN OVC025
      TEMPO 2922/2924 2SM -SN BR
     FM300000 21010KT 2SM -SN BR OVC015
     FM300500 26012KT 4SM -SN BR SCT007 OVC015
     FM301500 31018G24KT 3SM -SHSN OVC015=



000
FTUS41 KBUF 292100 AAB
TAFROC
TAF AMD
KROC 292118Z 2921/3018 17006KT 4SM -SN OVC025
     FM300100 22010KT 2SM -SN OVC015
     FM301500 31018G24KT 3SM -SHSN OVC015=



000
FTUS41 KBUF 292100 AAC
TAFBUF
TAF AMD
KBUF 292117Z 2921/3018 20014KT 4SM -SN SCT007 OVC025
     FM300000 24012KT 2SM -SN OVC007
     FM300700 28012G18KT 2SM -SN OVC015
     FM301200 29012G18KT 4SM -SN BKN015=



000
FTUS41 KBUF 292000 AAA
TAFROC
TAF AMD
KROC 292046Z 2921/3018 17005KT 6SM -SHSN OVC045
     FM292200 18015G22KT 2SM -SN OVC035
     FM300200 22011KT 2SM -SN OVC012
     FM301500 31018G24KT 3SM -SHSN OVC012=



000
FTUS41 KBUF 292000 AAB
TAFBUF
TAF AMD
KBUF 292046Z 2921/3018 20013G21KT 3/4SM -SN BR BKN007 OVC025
     FM292200 19015KT 2SM -SN OVC015
     FM300200 24012KT 2SM -SN OVC007
     FM300700 28013G19KT 2SM -SN OVC012
     FM301200 29012G18KT 4SM -SN BKN012 OVC025=



000
FTUS41 KBUF 292000 AAA
TAFART
TAF AMD
KART 292046Z 2921/3018 17012G21KT P6SM VCSH SCT070 OVC080
     FM292300 17014KT 4SM -SN OVC040
     FM300300 22010KT 2SM -SN OVC012
     FM301100 29011KT 3SM -SHSN OVC012
     FM301500 33013KT 5SM -SHSN OVC012=



000
FTUS41 KBUF 292000 AAB
TAFJHW
TAF AMD
KJHW 292046Z 2921/3018 19009KT 1SM -SN OVC006
     FM292300 21014KT 1SM -SN OVC007
     FM300200 25013KT 2SM -SN OVC007
     FM300800 29014G21KT 2SM -SN OVC007
      AMD LTD TO CLD VIS AND WIND=



000
FTUS41 KBUF 292000 AAB
TAFIAG
TAF AMD
KIAG 292046Z 2921/3018 20011KT 2SM -SN BR OVC008
     FM300900 30015G22KT 2SM -SHSN OVC020
     FM301100 31017G25KT 4SM -SN VCSH BKN012 OVC025=



000
FTUS41 KBUF 291900 AAA
TAFJHW
TAF AMD
KJHW 291939Z 2920/3018 18012G18KT 2SM -SN OVC007
     FM292300 21014KT 1SM -SN OVC007
     FM300200 25013KT 2SM -SN OVC007
     FM300800 29014G21KT 2SM -SN OVC007
      AMD LTD TO CLD VIS AND WIND=



000
FTUS41 KBUF 291900 AAA
TAFBUF
TAF AMD
KBUF 291939Z 2920/3018 15010KT 2SM -SN OVC025
     FM292100 18016KT 3SM -SN OVC025
     FM292200 19015KT 2SM -SN OVC015
     FM300200 24012KT 2SM -SN OVC007
     FM300700 28013G19KT 2SM -SN OVC012
     FM301200 29012G18KT 4SM -SN BKN012 OVC025=



000
FTUS41 KBUF 291900 AAA
TAFIAG
TAF AMD
KIAG 291939Z 2920/3018 19013KT 2SM -SN OVC012
     FM300900 30015G22KT 2SM -SHSN OVC020
     FM301100 31017G25KT 4SM -SN VCSH BKN012 OVC025=



000
FTUS41 KBUF 291700
TAFJHW
TAF
KJHW 291732Z 2918/3018 17012G21KT 6SM -SNPL OVC040
     FM292000 17020G27KT 3SM -SN OVC025
     FM292300 19014G20KT 2SM -SN OVC007
     FM300200 25013KT 2SM -SN OVC007
     FM300800 29014G21KT 2SM -SN OVC007
      AMD LTD TO CLD VIS AND WIND=



000
FTUS41 KBUF 291700
TAFIAG
TAF
KIAG 291732Z 2918/3018 17012KT 6SM -SNPLRA OVC040
     FM292000 19013KT 3SM -SN OVC012
     FM292200 20012KT 2SM -SN OVC012
     FM300900 30015G22KT 2SM -SHSN OVC020
     FM301100 31017G25KT 4SM -SN VCSH BKN012 OVC025=



000
FTUS41 KBUF 291700
TAFBUF
TAF
KBUF 291732Z 2918/3018 15010KT 6SM -SNPLRA OVC045
     FM292100 18016KT 3SM -SN OVC035
     FM292200 19015KT 2SM -SN OVC015
     FM300200 24012KT 2SM -SN OVC007
     FM300700 28013G19KT 2SM -SN OVC012
     FM301200 29012G18KT 4SM -SN BKN012 OVC025=



000
FTUS41 KBUF 291700
TAFART
TAF
KART 291732Z 2918/3018 10006KT P6SM OVC070
     FM292100 16012KT P6SM VCSH OVC050
     FM292300 17014KT 4SM -SN OVC040
     FM300300 22010KT 2SM -SN OVC012
     FM301100 29011KT 3SM -SHSN OVC012
     FM301500 33013KT 5SM -SHSN OVC012=



000
FTUS41 KBUF 291700
TAFROC
TAF
KROC 291732Z 2918/3018 16012KT P6SM OVC070
     FM291900 17015KT 6SM BR VCSH OVC060
     FM292300 18015G22KT 3SM -SN OVC035
     FM300200 22011KT 2SM -SN OVC012
     FM301500 31018G24KT 3SM -SHSN OVC012=



000
FTUS41 KBUF 291500 AAA
TAFROC
TAF AMD
KROC 291517Z 2915/3012 15010KT P6SM SCT035 OVC070
     FM292000 17017KT P6SM VCSH OVC045
     FM292200 17017KT 2SM -SN OVC035
     FM300400 21012G19KT 2SM -SN OVC012
     FM300500 25012G19KT 2SM -SN OVC012
     FM301000 29017G26KT 2SM -SN OVC012=



000
FTUS41 KBUF 291500 AAA
TAFIAG
TAF AMD
KIAG 291517Z 2915/3012 15010KT P6SM SCT035 OVC060
     FM291700 16015KT P6SM VCSH SCT035 OVC040
     FM291900 17014KT 2SM -SN OVC025
     FM292300 20013KT 2SM -SN OVC012
     FM300200 25013KT 2SM -SN OVC012
     FM300700 29014G24KT 2SM -SN OVC012
     FM301100 31016G26KT 4SM -SN OVC012=



000
FTUS41 KBUF 291500 AAA
TAFBUF
TAF AMD
KBUF 291517Z 2915/3012 16012KT P6SM SCT035 OVC060
     FM291800 17016KT P6SM VCSH SCT025 OVC035
     FM292000 18015KT 2SM -SN OVC025
     FM300100 22014G20KT 2SM -SN OVC007
     FM300400 26013G19KT 2SM -SN OVC007
     FM301100 30014G24KT 2SM -SN OVC012=



000
FTUS41 KBUF 291500 AAA
TAFART
TAF AMD
KART 291517Z 2915/3012 10005KT P6SM SCT100 BKN130
     FM291700 16010KT P6SM SCT050 OVC070
     FM292200 17015G24KT P6SM VCSH OVC040
     FM292300 17017G25KT 2SM -SN OVC035
     FM300800 21012G23KT 2SM -SN OVC012
     FM301100 28012G22KT 2SM -SN OVC012=



000
FTUS41 KBUF 291500 AAA
TAFJHW
TAF AMD
KJHW 291517Z 2915/3012 16015G22KT P6SM VCSH SCT035 OVC060
     FM291800 16020KT 2SM -SN OVC025
     FM292100 18020KT 2SM -SN OVC003
     FM300200 25015G21KT 2SM -SN OVC003
     FM300700 29016G28KT 2SM -SN OVC003
     FM301100 29016G25KT 2SM -SN OVC007
      AMD LTD TO CLD VIS AND WIND=



000
FTUS41 KBUF 291100
TAFJHW
TAF
KJHW 291131Z 2912/3012 16011KT P6SM SCT035 OVC070
     FM291500 16020KT P6SM SCT035 OVC060
     FM291800 16020KT 2SM -SN OVC025
     FM292100 18020KT 2SM -SN OVC003
     FM300200 25015G21KT 2SM -SN OVC003
     FM300700 29016G28KT 2SM -SN OVC003
     FM301100 29016G25KT 2SM -SN OVC007
      AMD LTD TO CLD VIS AND WIND=



000
FTUS41 KBUF 291100
TAFBUF
TAF
KBUF 291131Z 2912/3012 14008KT P6SM SCT035 OVC070
     FM291400 16013KT P6SM SCT035 OVC060
     FM291800 17016KT P6SM VCSH SCT025 OVC035
     FM292000 18015KT 2SM -SN OVC025
     FM300100 22014G20KT 2SM -SN OVC007
     FM300400 26013G19KT 2SM -SN OVC007
     FM301100 30014G24KT 2SM -SN OVC012=



000
FTUS41 KBUF 291100
TAFROC
TAF
KROC 291131Z 2912/3012 20006KT P6SM SCT050 OVC100
     FM291500 16013KT P6SM SCT035 OVC070
     FM292000 17017KT P6SM VCSH OVC045
     FM292200 17017KT 2SM -SN OVC035
     FM300400 21012G19KT 2SM -SN OVC012
     FM300500 25012G19KT 2SM -SN OVC012
     FM301000 29017G26KT 2SM -SN OVC012=



000
FTUS41 KBUF 291100
TAFIAG
TAF
KIAG 291131Z 2912/3012 12008KT P6SM SCT035 OVC070
     FM291500 15013KT P6SM SCT035 OVC060
     FM291700 16015KT P6SM VCSH SCT035 OVC040
     FM291900 17014KT 2SM -SN OVC025
     FM292300 20013KT 2SM -SN OVC012
     FM300200 25013KT 2SM -SN OVC012
     FM300700 29014G24KT 2SM -SN OVC012
     FM301100 31016G26KT 4SM -SN OVC012=



000
FTUS41 KBUF 291100
TAFART
TAF
KART 291131Z 2912/3012 10005KT P6SM SCT100 BKN130
     FM291700 16010KT P6SM SCT050 OVC070
     FM292200 17015G24KT P6SM VCSH OVC040
     FM292300 17017G25KT 2SM -SN OVC035
     FM300800 21012G23KT 2SM -SN OVC012
     FM301100 28012G22KT 2SM -SN OVC012=



000
FTUS41 KBUF 290900 AAA
TAFIAG
TAF AMD
KIAG 290912Z 2909/3006 16006KT P6SM SCT120 BKN250
     FM291500 15012G18KT P6SM SCT035 OVC060
     FM291800 17014G22KT 4SM -SN SCT025 OVC040
     FM292030 19014G24KT 2SM -SN OVC025
     FM300000 21012KT 1SM -SN OVC015
     FM300400 27015KT 2SM -SN OVC015=



000
FTUS41 KBUF 290900 AAA
TAFART
TAF AMD
KART 290912Z 2909/3006 00000KT P6SM FEW100 SCT140
     FM291500 15006KT P6SM SCT050 BKN100
     FM291800 17012G19KT P6SM SCT035 OVC060
     FM292100 16017G23KT 4SM -SN OVC045
     FM300000 18016KT 2SM -SN OVC025
     FM300200 18015KT 1SM -SN OVC015=



000
FTUS41 KBUF 290900 AAA
TAFBUF
TAF AMD
KBUF 290912Z 2909/3006 16005KT P6SM BKN250
     FM291500 16014G22KT P6SM SCT035 OVC060
     FM291800 17015G25KT 4SM -SN SCT025 OVC040
     FM292030 19015G25KT 1SM -SN OVC025
     FM300000 21012KT 1SM -SN OVC015
     FM300400 26014KT 1SM -SN OVC007=



000
FTUS41 KBUF 290900 AAA
TAFROC
TAF AMD
KROC 290912Z 2909/3006 22004KT P6SM BKN250
     FM291500 16012KT P6SM SCT035 OVC060
     FM292000 17014G22KT 4SM -SN OVC050
     FM292300 18014KT 2SM -SN SCT025 OVC035
     FM300200 21013KT 1SM -SN OVC015
     FM300500 27013KT 2SM -SN OVC012=



000
FTUS41 KBUF 290900 AAA
TAFJHW
TAF AMD
KJHW 290912Z 2909/3006 16006KT P6SM SCT070 OVC100
     FM291100 16014KT P6SM SCT035 OVC070 WS020/18040KT
     FM291400 16014G22KT P6SM SCT035 OVC070
     FM291700 16014KT 4SM -SN SCT025 OVC040
     FM291900 17014KT 2SM -SN SCT015 OVC025
     FM292200 19014KT 1SM -SN OVC007
      AMD LTD TO CLD VIS AND WIND=



000
FTUS41 KBUF 290500
TAFROC
TAF
KROC 290520Z 2906/3006 19004KT P6SM FEW100 SCT250
     FM290900 16006KT P6SM BKN140
     FM291500 16012KT P6SM SCT035 OVC060
     FM292000 17014G22KT 4SM -SN OVC050
     FM292300 18014KT 2SM -SN SCT025 OVC035
     FM300200 21013KT 1SM -SN OVC015
     FM300500 27013KT 2SM -SN OVC012=



000
FTUS41 KBUF 290500
TAFIAG
TAF
KIAG 290520Z 2906/3006 18006KT P6SM SCT100 BKN200
     FM290900 16006KT P6SM SCT050 BKN100
     FM291500 15012G18KT P6SM SCT035 OVC060
     FM291800 17014G22KT 4SM -SN SCT025 OVC040
     FM292030 19014G24KT 2SM -SN OVC025
     FM300000 21012KT 1SM -SN OVC015
     FM300400 27015KT 2SM -SN OVC015=



000
FTUS41 KBUF 290500
TAFJHW
TAF
KJHW 290520Z 2906/3006 16006KT P6SM SCT070 BKN130
     FM291100 16014KT P6SM SCT035 OVC070 WS020/18040KT
     FM291400 16014G22KT P6SM SCT035 OVC070
     FM291700 16014KT 4SM -SN SCT025 OVC040
     FM291900 17014KT 2SM -SN SCT015 OVC025
     FM292200 19014KT 1SM -SN OVC007
      AMD LTD TO CLD VIS AND WIND=



000
FTUS41 KBUF 290500
TAFART
TAF
KART 290520Z 2906/3006 10004KT P6SM SKC
     FM291000 14004KT P6SM FEW100 SCT140
     FM291500 15006KT P6SM SCT050 BKN100
     FM291800 17012G19KT P6SM SCT035 OVC060
     FM292100 16017G23KT 4SM -SN OVC045
     FM300000 18016KT 2SM -SN OVC025
     FM300200 18015KT 1SM -SN OVC015=



000
FTUS41 KBUF 290500
TAFBUF
TAF
KBUF 290520Z 2906/3006 16005KT P6SM SCT100 BKN200
     FM291000 15010KT P6SM SCT035 OVC070
     FM291500 16014G22KT P6SM SCT035 OVC060
     FM291800 17015G25KT 4SM -SN SCT025 OVC040
     FM292030 19015G25KT 1SM -SN OVC025
     FM300000 21012KT 1SM -SN OVC015
     FM300400 26014KT 1SM -SN OVC007=



000
FTUS41 KBUF 290300 AAA
TAFJHW
TAF AMD
KJHW 290317Z 2903/2924 17005KT P6SM SCT250
     FM290600 17005KT P6SM BKN120
     FM291200 16012KT P6SM OVC060 WS020/18040KT
     FM291500 16015G22KT P6SM VCSH OVC045 WS020/18045KT
     FM291800 17015G22KT 2SM -SN OVC025
     FM292000 18018G25KT 1SM -SN OVC015
     FM292200 19015KT 1SM -SN OVC007
      AMD LTD TO CLD VIS AND WIND=



000
FTUS41 KBUF 290300 AAA
TAFART
TAF AMD
KART 290317Z 2903/2924 10003KT P6SM SKC
     FM290600 14004KT P6SM FEW250
     FM291200 14004KT P6SM BKN130
     FM291700 16010G18KT P6SM OVC070
     FM292000 16016G23KT 2SM -SN OVC040
     FM292300 17017KT 1SM -SN OVC025=



000
FTUS41 KBUF 290300 AAA
TAFIAG
TAF AMD
KIAG 290316Z 2903/2924 18004KT P6SM SCT250
     FM290600 18004KT P6SM SCT120 OVC200
     FM290900 16006KT P6SM BKN100
     FM291400 15012G18KT P6SM OVC050
     FM291800 17014G22KT 2SM -SN SCT025 OVC035
     FM292100 19013G22KT 1SM -SN OVC015=



000
FTUS41 KBUF 290300 AAA
TAFROC
TAF AMD
KROC 290316Z 2903/2924 20004KT P6SM SKC
     FM291000 16006KT P6SM BKN130
     FM291600 16014G22KT P6SM VCSH OVC035
     FM292000 17016G26KT 4SM -SN SCT025 OVC035
     FM292300 17015G20KT 2SM -SN OVC025=



000
FTUS41 KBUF 290300 AAA
TAFBUF
TAF AMD
KBUF 290315Z 2903/2924 18004KT P6SM SCT250
     FM290600 16006KT P6SM SCT120 OVC200
     FM291000 15008KT P6SM BKN100
     FM291500 15015G22KT P6SM OVC070
     FM291800 17018G24KT 2SM -SN SCT025 OVC035
     FM292100 19014G20KT 1SM -SN OVC015=



000
FTUS41 KBUF 282300
TAFBUF
TAF
KBUF 282340Z 2900/2924 22004KT P6SM SCT250
     FM290600 16006KT P6SM SCT120 OVC200
     FM291000 15008KT P6SM BKN100
     FM291500 15015G22KT P6SM OVC070
     FM291800 17018G24KT 2SM -SN SCT025 OVC035
     FM292100 19014G20KT 1SM -SN OVC015=



000
FTUS41 KBUF 282300
TAFJHW
TAF
KJHW 282340Z 2900/2924 VRB03KT P6SM SCT250
     FM290600 17005KT P6SM BKN120
     FM291200 16012KT P6SM OVC060 WS020/18040KT
     FM291500 16015G22KT P6SM VCSH OVC045 WS020/18045KT
     FM291800 17015G22KT 2SM -SN OVC025
     FM292000 18018G25KT 1SM -SN OVC015
     FM292200 19015KT 1SM -SN OVC007
      AMD LTD TO CLD VIS AND WIND=



000
FTUS41 KBUF 282300
TAFROC
TAF
KROC 282340Z 2900/2924 24004KT P6SM SCT250
     FM290600 19004KT P6SM BKN250
     FM291000 16006KT P6SM BKN130
     FM291600 16014G22KT P6SM VCSH OVC035
     FM292000 17016G26KT 4SM -SN SCT025 OVC035
     FM292300 17015G20KT 2SM -SN OVC025=



000
FTUS41 KBUF 282300
TAFART
TAF
KART 282340Z 2900/2924 VRB03KT P6SM SKC
     FM290600 16004KT P6SM FEW250
     FM291200 14004KT P6SM BKN130
     FM291700 16010G18KT P6SM OVC070
     FM292000 16016G23KT 2SM -SN OVC040
     FM292300 17017KT 1SM -SN OVC025=



000
FTUS41 KBUF 282300
TAFIAG
TAF
KIAG 282340Z 2900/2924 21004KT P6SM SCT250
     FM290600 18004KT P6SM SCT120 OVC200
     FM290900 16006KT P6SM BKN100
     FM291400 15012G18KT P6SM OVC050
     FM291800 17014G22KT 2SM -SN SCT025 OVC035
     FM292100 19013G22KT 1SM -SN OVC015=



000
FTUS41 KBUF 281700
TAFIAG
TAF
KIAG 281732Z 2818/2918 29004KT P6SM FEW250
     FM290600 17004KT P6SM BKN120
     FM291200 14006KT P6SM VCSH OVC035
     FM291400 14010KT P6SM OVC050
     FM291700 16013KT P6SM VCSH OVC060=



000
FTUS41 KBUF 281700
TAFROC
TAF
KROC 281732Z 2818/2918 29005KT P6SM FEW250
     FM291100 15006KT P6SM OVC100
     FM291500 17011KT P6SM VCSH OVC030
     FM291700 16015G21KT P6SM VCSH OVC045=



000
FTUS41 KBUF 281700
TAFBUF
TAF
KBUF 281732Z 2818/2918 22008KT P6SM FEW250
     FM290800 14005KT P6SM BKN110
     FM291300 15010KT P6SM VCSH OVC035
     FM291400 16011KT P6SM OVC060
     FM291700 16015G22KT P6SM VCSH SCT030 OVC060=



000
FTUS41 KBUF 281700
TAFJHW
TAF
KJHW 281732Z 2818/2918 VRB03KT P6SM FEW250
     FM290900 16011KT P6SM OVC080
     FM291500 16014G20KT P6SM VCSH OVC060
      AMD LTD TO CLD VIS AND WIND=



000
FTUS41 KBUF 281700
TAFART
TAF
KART 281732Z 2818/2918 VRB04KT P6SM FEW250
     FM291700 16010KT P6SM VCSH OVC090
      AMD NOT SKED=



000
FTUS41 KBUF 281500 AAA
TAFROC
TAF AMD
KROC 281506Z 2815/2912 26008KT P6SM SKC
     FM290200 VRB03KT P6SM FEW250
     FM290900 15004KT P6SM BKN120=



000
FTUS41 KBUF 281500 AAA
TAFIAG
TAF AMD
KIAG 281506Z 2815/2912 24007KT P6SM SKC
     FM290000 20005KT P6SM FEW250
     FM290800 VRB03KT P6SM BKN110
     FM291000 15004KT P6SM OVC090=



000
FTUS41 KBUF 281500 AAA
TAFART
TAF AMD
KART 281506Z 2815/2912 VRB03KT P6SM SKC
     FM282000 25005KT P6SM SKC
     FM282300 19005KT P6SM SKC
     FM290100 VRB03KT P6SM SKC=



000
FTUS41 KBUF 281500 AAA
TAFJHW
TAF AMD
KJHW 281506Z 2815/2912 30006KT P6SM SKC
     FM282300 23005KT P6SM FEW200
     FM290200 18005KT P6SM SCT200
     FM290900 15005KT P6SM OVC070
      AMD LTD TO CLD VIS AND WIND=



000
FTUS41 KBUF 281500 AAA
TAFBUF
TAF AMD
KBUF 281506Z 2815/2912 23007KT P6SM SKC
     FM290100 20006KT P6SM FEW200
     FM290400 16005KT P6SM SCT200
     FM290900 14005KT P6SM OVC100=



    US Dept of Commerce
    National Oceanic and Atmospheric Administration
    National Weather Service
    1325 East West Highway
    Silver Spring, MD 20910
    Page Author: NWS Internet Services Team
Disclaimer
Information Quality
Credits
Glossary
Privacy Policy
Freedom of Information Act (FOIA)
About Us
Career Opportunities